sensor_id;sensor_type;location;lat;lon;timestamp;pressure;altitude;pressure_sealevel;temperature;humidity
16331;BME280;8275;48.206;16.340;2022-07-06T00:02:18;99413.88;;;24.13;44.95
16331;BME280;8275;48.206;16.340;2022-07-06T00:04:47;99413.09;;;24.12;44.87
16331;BME280;8275;48.206;16.340;2022-07-06T00:07:15;99418.69;;;24.12;45.01
16331;BME280;8275;48.206;16.340;2022-07-06T00:09:43;99414.22;;;24.11;45.20
16331;BME280;8275;48.206;16.340;2022-07-06T00:12:13;99414.59;;;24.10;45.32
16331;BME280;8275;48.206;16.340;2022-07-06T00:14:41;99403.41;;;24.10;45.21
16331;BME280;8275;48.206;16.340;2022-07-06T00:17:10;99399.78;;;24.09;45.52
16331;BME280;8275;48.206;16.340;2022-07-06T00:19:39;99407.34;;;24.09;45.79
16331;BME280;8275;48.206;16.340;2022-07-06T00:22:08;99408.16;;;24.09;45.55
16331;BME280;8275;48.206;16.340;2022-07-06T00:24:36;99416.09;;;24.07;45.53
16331;BME280;8275;48.206;16.340;2022-07-06T00:27:05;99418.06;;;24.07;45.38
16331;BME280;8275;48.206;16.340;2022-07-06T00:29:33;99419.72;;;24.08;45.29
16331;BME280;8275;48.206;16.340;2022-07-06T00:32:02;99433.34;;;24.09;45.32
16331;BME280;8275;48.206;16.340;2022-07-06T00:34:31;99436.97;;;24.10;45.37
16331;BME280;8275;48.206;16.340;2022-07-06T00:37:00;99444.19;;;24.11;45.47
16331;BME280;8275;48.206;16.340;2022-07-06T00:39:29;99445.50;;;24.13;45.24
16331;BME280;8275;48.206;16.340;2022-07-06T00:41:57;99451.56;;;24.15;45.18
16331;BME280;8275;48.206;16.340;2022-07-06T00:44:25;99450.44;;;24.16;44.93
16331;BME280;8275;48.206;16.340;2022-07-06T00:46:54;99457.78;;;24.21;45.13
16331;BME280;8275;48.206;16.340;2022-07-06T00:49:22;99455.63;;;24.26;45.62
16331;BME280;8275;48.206;16.340;2022-07-06T00:52:10;99449.31;;;24.29;46.48
16331;BME280;8275;48.206;16.340;2022-07-06T00:54:40;99449.13;;;24.34;46.44
16331;BME280;8275;48.206;16.340;2022-07-06T00:57:09;99446.59;;;24.41;47.18
16331;BME280;8275;48.206;16.340;2022-07-06T00:59:38;99440.31;;;24.45;47.56
16331;BME280;8275;48.206;16.340;2022-07-06T01:02:07;99434.00;;;24.48;47.86
16331;BME280;8275;48.206;16.340;2022-07-06T01:04:35;99450.59;;;24.53;47.81
16331;BME280;8275;48.206;16.340;2022-07-06T01:07:04;99441.03;;;24.54;48.18
16331;BME280;8275;48.206;16.340;2022-07-06T01:09:33;99439.53;;;24.56;48.21
16331;BME280;8275;48.206;16.340;2022-07-06T01:12:03;99432.44;;;24.59;48.21
16331;BME280;8275;48.206;16.340;2022-07-06T01:14:32;99433.69;;;24.61;48.47
16331;BME280;8275;48.206;16.340;2022-07-06T01:17:01;99425.78;;;24.63;48.04
16331;BME280;8275;48.206;16.340;2022-07-06T01:19:30;99425.06;;;24.66;48.11
16331;BME280;8275;48.206;16.340;2022-07-06T01:22:00;99430.34;;;24.68;48.20
16331;BME280;8275;48.206;16.340;2022-07-06T01:24:28;99424.88;;;24.71;48.17
16331;BME280;8275;48.206;16.340;2022-07-06T01:26:57;99422.88;;;24.72;48.26
16331;BME280;8275;48.206;16.340;2022-07-06T01:29:25;99422.88;;;24.72;48.47
16331;BME280;8275;48.206;16.340;2022-07-06T01:31:54;99416.09;;;24.73;48.24
16331;BME280;8275;48.206;16.340;2022-07-06T01:34:23;99413.31;;;24.73;48.31
16331;BME280;8275;48.206;16.340;2022-07-06T01:36:52;99415.78;;;24.74;48.13
16331;BME280;8275;48.206;16.340;2022-07-06T01:39:23;99411.00;;;24.75;48.28
16331;BME280;8275;48.206;16.340;2022-07-06T01:41:51;99407.38;;;24.74;48.41
16331;BME280;8275;48.206;16.340;2022-07-06T01:44:20;99414.13;;;24.73;48.11
16331;BME280;8275;48.206;16.340;2022-07-06T01:46:48;99408.53;;;24.73;48.03
16331;BME280;8275;48.206;16.340;2022-07-06T01:49:17;99406.53;;;24.74;48.17
16331;BME280;8275;48.206;16.340;2022-07-06T01:51:45;99411.31;;;24.73;47.91
16331;BME280;8275;48.206;16.340;2022-07-06T01:54:13;99409.84;;;24.76;48.06
16331;BME280;8275;48.206;16.340;2022-07-06T01:56:43;99407.88;;;24.76;47.76
16331;BME280;8275;48.206;16.340;2022-07-06T01:59:12;99403.88;;;24.77;47.58
16331;BME280;8275;48.206;16.340;2022-07-06T02:01:40;99411.13;;;24.78;47.47
16331;BME280;8275;48.206;16.340;2022-07-06T02:04:09;99424.00;;;24.79;47.39
16331;BME280;8275;48.206;16.340;2022-07-06T02:06:37;99423.19;;;24.79;47.26
16331;BME280;8275;48.206;16.340;2022-07-06T02:09:06;99421.19;;;24.79;47.18
16331;BME280;8275;48.206;16.340;2022-07-06T02:11:34;99425.63;;;24.80;47.00
16331;BME280;8275;48.206;16.340;2022-07-06T02:14:04;99428.56;;;24.84;46.73
16331;BME280;8275;48.206;16.340;2022-07-06T02:16:32;99439.88;;;24.87;46.67
16331;BME280;8275;48.206;16.340;2022-07-06T02:19:01;99440.81;;;24.91;46.51
16331;BME280;8275;48.206;16.340;2022-07-06T02:21:29;99440.97;;;24.95;46.38
16331;BME280;8275;48.206;16.340;2022-07-06T02:23:58;99442.25;;;24.97;46.29
16331;BME280;8275;48.206;16.340;2022-07-06T02:26:28;99441.91;;;24.99;46.11
16331;BME280;8275;48.206;16.340;2022-07-06T02:28:56;99449.94;;;25.00;45.64
16331;BME280;8275;48.206;16.340;2022-07-06T02:31:26;99451.13;;;24.99;45.51
16331;BME280;8275;48.206;16.340;2022-07-06T02:33:54;99449.47;;;24.98;45.29
16331;BME280;8275;48.206;16.340;2022-07-06T02:36:22;99449.84;;;24.97;45.20
16331;BME280;8275;48.206;16.340;2022-07-06T02:38:51;99460.91;;;24.93;45.02
16331;BME280;8275;48.206;16.340;2022-07-06T02:41:19;99448.75;;;24.89;44.99
16331;BME280;8275;48.206;16.340;2022-07-06T02:43:48;99448.97;;;24.84;44.96
16331;BME280;8275;48.206;16.340;2022-07-06T02:46:16;99457.63;;;24.79;45.15
16331;BME280;8275;48.206;16.340;2022-07-06T02:48:46;99452.53;;;24.73;45.23
16331;BME280;8275;48.206;16.340;2022-07-06T02:51:14;99456.72;;;24.67;45.26
16331;BME280;8275;48.206;16.340;2022-07-06T02:53:43;99462.53;;;24.62;45.53
16331;BME280;8275;48.206;16.340;2022-07-06T02:56:11;99457.50;;;24.55;45.55
16331;BME280;8275;48.206;16.340;2022-07-06T02:58:39;99463.31;;;24.50;45.72
16331;BME280;8275;48.206;16.340;2022-07-06T03:01:08;99455.09;;;24.45;45.70
16331;BME280;8275;48.206;16.340;2022-07-06T03:03:36;99459.75;;;24.41;45.86
16331;BME280;8275;48.206;16.340;2022-07-06T03:06:07;99456.38;;;24.35;45.96
16331;BME280;8275;48.206;16.340;2022-07-06T03:08:35;99459.00;;;24.32;45.93
16331;BME280;8275;48.206;16.340;2022-07-06T03:11:03;99454.44;;;24.27;46.02
16331;BME280;8275;48.206;16.340;2022-07-06T03:13:32;99456.31;;;24.23;46.01
16331;BME280;8275;48.206;16.340;2022-07-06T03:16:00;99449.75;;;24.19;46.05
16331;BME280;8275;48.206;16.340;2022-07-06T03:18:29;99456.38;;;24.15;46.17
16331;BME280;8275;48.206;16.340;2022-07-06T03:20:57;99458.19;;;24.11;46.04
16331;BME280;8275;48.206;16.340;2022-07-06T03:23:27;99467.78;;;24.10;45.85
16331;BME280;8275;48.206;16.340;2022-07-06T03:25:56;99459.69;;;24.08;46.25
16331;BME280;8275;48.206;16.340;2022-07-06T03:28:24;99460.03;;;24.07;45.73
16331;BME280;8275;48.206;16.340;2022-07-06T03:30:52;99460.38;;;24.05;45.97
16331;BME280;8275;48.206;16.340;2022-07-06T03:33:21;99452.28;;;24.04;45.81
16331;BME280;8275;48.206;16.340;2022-07-06T03:35:49;99451.50;;;24.03;45.81
16331;BME280;8275;48.206;16.340;2022-07-06T03:38:18;99452.28;;;24.04;45.77
16331;BME280;8275;48.206;16.340;2022-07-06T03:40:48;99446.69;;;24.04;45.80
16331;BME280;8275;48.206;16.340;2022-07-06T03:43:16;99444.44;;;24.06;45.80
16331;BME280;8275;48.206;16.340;2022-07-06T03:45:45;99453.63;;;24.06;45.65
16331;BME280;8275;48.206;16.340;2022-07-06T03:48:13;99451.66;;;24.07;45.57
16331;BME280;8275;48.206;16.340;2022-07-06T03:50:42;99450.16;;;24.09;45.56
16331;BME280;8275;48.206;16.340;2022-07-06T03:53:10;99454.59;;;24.10;45.57
16331;BME280;8275;48.206;16.340;2022-07-06T03:55:39;99451.09;;;24.13;45.45
16331;BME280;8275;48.206;16.340;2022-07-06T03:58:08;99447.16;;;24.14;45.71
16331;BME280;8275;48.206;16.340;2022-07-06T04:00:37;99443.69;;;24.17;45.38
16331;BME280;8275;48.206;16.340;2022-07-06T04:03:05;99447.75;;;24.20;45.45
16331;BME280;8275;48.206;16.340;2022-07-06T04:05:34;99444.28;;;24.23;45.46
16331;BME280;8275;48.206;16.340;2022-07-06T04:08:03;99447.22;;;24.26;45.28
16331;BME280;8275;48.206;16.340;2022-07-06T04:10:31;99440.09;;;24.29;45.02
16331;BME280;8275;48.206;16.340;2022-07-06T04:13:00;99437.44;;;24.32;45.10
16331;BME280;8275;48.206;16.340;2022-07-06T04:15:29;99443.66;;;24.38;45.04
16331;BME280;8275;48.206;16.340;2022-07-06T04:17:58;99440.63;;;24.43;45.02
16331;BME280;8275;48.206;16.340;2022-07-06T04:20:27;99432.03;;;24.48;44.92
16331;BME280;8275;48.206;16.340;2022-07-06T04:22:55;99437.06;;;24.55;44.90
16331;BME280;8275;48.206;16.340;2022-07-06T04:25:24;99429.63;;;24.59;44.48
16331;BME280;8275;48.206;16.340;2022-07-06T04:27:52;99438.63;;;24.64;44.47
16331;BME280;8275;48.206;16.340;2022-07-06T04:30:21;99435.25;;;24.71;44.33
16331;BME280;8275;48.206;16.340;2022-07-06T04:32:51;99437.00;;;24.75;44.13
16331;BME280;8275;48.206;16.340;2022-07-06T04:35:19;99438.94;;;24.83;43.61
16331;BME280;8275;48.206;16.340;2022-07-06T04:37:48;99443.09;;;24.98;43.90
16331;BME280;8275;48.206;16.340;2022-07-06T04:40:16;99448.59;;;25.19;43.55
16331;BME280;8275;48.206;16.340;2022-07-06T04:42:45;99444.28;;;25.33;42.96
16331;BME280;8275;48.206;16.340;2022-07-06T04:45:14;99450.59;;;25.42;42.83
16331;BME280;8275;48.206;16.340;2022-07-06T04:47:42;99447.72;;;25.51;42.75
16331;BME280;8275;48.206;16.340;2022-07-06T04:50:13;99452.38;;;25.59;42.26
16331;BME280;8275;48.206;16.340;2022-07-06T04:52:41;99449.81;;;25.66;41.75
16331;BME280;8275;48.206;16.340;2022-07-06T04:55:10;99456.81;;;25.72;41.14
16331;BME280;8275;48.206;16.340;2022-07-06T04:57:39;99453.78;;;25.77;40.63
16331;BME280;8275;48.206;16.340;2022-07-06T05:00:10;99459.16;;;25.82;40.48
16331;BME280;8275;48.206;16.340;2022-07-06T05:02:38;99460.53;;;25.88;40.42
16331;BME280;8275;48.206;16.340;2022-07-06T05:05:08;99469.56;;;25.94;40.86
16331;BME280;8275;48.206;16.340;2022-07-06T05:07:38;99463.69;;;25.99;40.77
16331;BME280;8275;48.206;16.340;2022-07-06T05:10:09;99465.44;;;26.03;40.08
16331;BME280;8275;48.206;16.340;2022-07-06T05:12:39;99471.97;;;26.07;40.54
16331;BME280;8275;48.206;16.340;2022-07-06T05:15:09;99477.47;;;26.16;40.57
16331;BME280;8275;48.206;16.340;2022-07-06T05:17:37;99470.94;;;26.24;40.03
16331;BME280;8275;48.206;16.340;2022-07-06T05:20:07;99462.34;;;26.32;39.95
16331;BME280;8275;48.206;16.340;2022-07-06T05:22:37;99462.41;;;26.48;40.37
16331;BME280;8275;48.206;16.340;2022-07-06T05:25:12;99460.47;;;26.64;39.83
16331;BME280;8275;48.206;16.340;2022-07-06T05:27:41;99455.28;;;26.78;39.59
16331;BME280;8275;48.206;16.340;2022-07-06T05:30:10;99451.84;;;26.85;39.39
16331;BME280;8275;48.206;16.340;2022-07-06T05:32:39;99455.78;;;26.96;39.52
16331;BME280;8275;48.206;16.340;2022-07-06T05:35:08;99462.25;;;27.12;39.59
16331;BME280;8275;48.206;16.340;2022-07-06T05:37:58;99472.06;;;27.34;39.59
16331;BME280;8275;48.206;16.340;2022-07-06T05:40:26;99469.81;;;27.55;39.21
16331;BME280;8275;48.206;16.340;2022-07-06T05:42:55;99463.19;;;27.78;39.02
16331;BME280;8275;48.206;16.340;2022-07-06T05:45:23;99469.31;;;28.00;38.90
16331;BME280;8275;48.206;16.340;2022-07-06T05:47:52;99464.84;;;28.14;38.68
16331;BME280;8275;48.206;16.340;2022-07-06T05:50:38;99463.44;;;28.24;38.12
16331;BME280;8275;48.206;16.340;2022-07-06T05:53:08;99471.63;;;28.29;38.36
16331;BME280;8275;48.206;16.340;2022-07-06T05:55:46;99473.31;;;28.33;38.67
16331;BME280;8275;48.206;16.340;2022-07-06T05:58:15;99467.41;;;28.38;38.61
16331;BME280;8275;48.206;16.340;2022-07-06T06:00:43;99469.63;;;28.48;38.49
16331;BME280;8275;48.206;16.340;2022-07-06T06:03:12;99467.06;;;28.59;38.09
16331;BME280;8275;48.206;16.340;2022-07-06T06:05:40;99472.09;;;28.69;38.06
16331;BME280;8275;48.206;16.340;2022-07-06T06:08:10;99465.78;;;28.76;37.72
16331;BME280;8275;48.206;16.340;2022-07-06T06:10:39;99464.31;;;28.82;37.75
16331;BME280;8275;48.206;16.340;2022-07-06T06:13:07;99468.38;;;28.84;37.72
16331;BME280;8275;48.206;16.340;2022-07-06T06:15:36;99470.09;;;28.89;37.58
16331;BME280;8275;48.206;16.340;2022-07-06T06:18:05;99482.25;;;28.93;37.54
16331;BME280;8275;48.206;16.340;2022-07-06T06:20:33;99482.31;;;28.96;36.69
16331;BME280;8275;48.206;16.340;2022-07-06T06:23:02;99482.91;;;29.05;36.55
16331;BME280;8275;48.206;16.340;2022-07-06T06:25:35;99495.91;;;29.10;36.12
16331;BME280;8275;48.206;16.340;2022-07-06T06:28:06;99498.38;;;29.15;36.01
16331;BME280;8275;48.206;16.340;2022-07-06T06:30:36;99506.97;;;29.18;35.86
16331;BME280;8275;48.206;16.340;2022-07-06T06:33:07;99512.31;;;29.24;35.40
16331;BME280;8275;48.206;16.340;2022-07-06T06:35:36;99505.66;;;29.35;35.18
16331;BME280;8275;48.206;16.340;2022-07-06T06:38:05;99502.22;;;29.45;35.49
16331;BME280;8275;48.206;16.340;2022-07-06T06:40:35;99511.25;;;29.54;35.28
16331;BME280;8275;48.206;16.340;2022-07-06T06:43:04;99519.47;;;29.63;34.99
16331;BME280;8275;48.206;16.340;2022-07-06T06:45:33;99514.75;;;29.70;34.81
16331;BME280;8275;48.206;16.340;2022-07-06T06:48:01;99522.44;;;29.70;35.36
16331;BME280;8275;48.206;16.340;2022-07-06T06:50:30;99520.78;;;29.69;35.22
16331;BME280;8275;48.206;16.340;2022-07-06T06:52:59;99524.31;;;29.62;35.48
16331;BME280;8275;48.206;16.340;2022-07-06T06:55:27;99516.09;;;29.54;34.94
16331;BME280;8275;48.206;16.340;2022-07-06T06:57:57;99513.81;;;29.40;34.92
16331;BME280;8275;48.206;16.340;2022-07-06T07:00:26;99525.78;;;29.34;34.58
16331;BME280;8275;48.206;16.340;2022-07-06T07:02:54;99513.09;;;29.24;34.61
16331;BME280;8275;48.206;16.340;2022-07-06T07:05:23;99523.50;;;29.20;34.58
16331;BME280;8275;48.206;16.340;2022-07-06T07:07:51;99518.25;;;29.18;34.83
16331;BME280;8275;48.206;16.340;2022-07-06T07:10:30;99508.59;;;29.19;34.68
16331;BME280;8275;48.206;16.340;2022-07-06T07:13:00;99516.69;;;29.21;34.81
16331;BME280;8275;48.206;16.340;2022-07-06T07:15:29;99515.13;;;29.24;34.34
16331;BME280;8275;48.206;16.340;2022-07-06T07:17:57;99505.41;;;29.21;34.59
16331;BME280;8275;48.206;16.340;2022-07-06T07:20:26;99502.59;;;29.21;34.31
16331;BME280;8275;48.206;16.340;2022-07-06T07:22:57;99502.34;;;29.30;34.46
16331;BME280;8275;48.206;16.340;2022-07-06T07:25:26;99496.88;;;29.40;34.27
16331;BME280;8275;48.206;16.340;2022-07-06T07:27:55;99493.88;;;29.52;34.17
16331;BME280;8275;48.206;16.340;2022-07-06T07:30:24;99490.53;;;29.69;34.18
16331;BME280;8275;48.206;16.340;2022-07-06T07:32:53;99496.56;;;29.91;34.22
16331;BME280;8275;48.206;16.340;2022-07-06T07:35:23;99495.41;;;30.21;34.54
16331;BME280;8275;48.206;16.340;2022-07-06T07:37:51;99495.97;;;30.60;34.40
16331;BME280;8275;48.206;16.340;2022-07-06T07:40:20;99491.44;;;30.85;33.35
16331;BME280;8275;48.206;16.340;2022-07-06T07:42:49;99496.13;;;31.00;33.17
16331;BME280;8275;48.206;16.340;2022-07-06T07:45:17;99489.78;;;31.10;33.17
16331;BME280;8275;48.206;16.340;2022-07-06T07:47:47;99491.47;;;31.18;32.88
16331;BME280;8275;48.206;16.340;2022-07-06T07:50:16;99490.78;;;31.29;32.15
16331;BME280;8275;48.206;16.340;2022-07-06T07:52:45;99488.38;;;31.34;32.80
16331;BME280;8275;48.206;16.340;2022-07-06T07:55:13;99480.47;;;31.50;32.96
16331;BME280;8275;48.206;16.340;2022-07-06T07:58:02;99479.00;;;31.67;32.77
16331;BME280;8275;48.206;16.340;2022-07-06T08:00:31;99473.00;;;31.75;32.68
16331;BME280;8275;48.206;16.340;2022-07-06T08:03:02;99479.53;;;31.79;32.32
16331;BME280;8275;48.206;16.340;2022-07-06T08:05:30;99484.38;;;31.79;32.22
16331;BME280;8275;48.206;16.340;2022-07-06T08:07:59;99473.81;;;31.72;32.46
16331;BME280;8275;48.206;16.340;2022-07-06T08:10:28;99479.44;;;31.69;32.33
16331;BME280;8275;48.206;16.340;2022-07-06T08:13:12;99489.16;;;31.68;31.91
16331;BME280;8275;48.206;16.340;2022-07-06T08:15:42;99490.34;;;31.70;32.01
16331;BME280;8275;48.206;16.340;2022-07-06T08:18:12;99483.50;;;31.71;31.50
16331;BME280;8275;48.206;16.340;2022-07-06T08:20:41;99497.66;;;31.71;31.52
16331;BME280;8275;48.206;16.340;2022-07-06T08:23:29;99488.28;;;31.64;31.59
16331;BME280;8275;48.206;16.340;2022-07-06T08:25:58;99487.03;;;31.58;31.39
16331;BME280;8275;48.206;16.340;2022-07-06T08:28:26;99491.84;;;31.54;31.14
16331;BME280;8275;48.206;16.340;2022-07-06T08:30:56;99486.53;;;31.49;31.02
16331;BME280;8275;48.206;16.340;2022-07-06T08:33:26;99493.78;;;31.46;31.33
16331;BME280;8275;48.206;16.340;2022-07-06T08:35:55;99489.78;;;31.51;31.08
16331;BME280;8275;48.206;16.340;2022-07-06T08:38:23;99491.44;;;31.55;31.43
16331;BME280;8275;48.206;16.340;2022-07-06T08:40:53;99490.69;;;31.62;31.39
16331;BME280;8275;48.206;16.340;2022-07-06T08:43:21;99488.69;;;31.62;31.12
16331;BME280;8275;48.206;16.340;2022-07-06T08:45:53;99488.66;;;31.59;31.28
16331;BME280;8275;48.206;16.340;2022-07-06T08:48:25;99493.50;;;31.58;30.83
16331;BME280;8275;48.206;16.340;2022-07-06T08:50:55;99499.63;;;31.64;31.00
16331;BME280;8275;48.206;16.340;2022-07-06T08:53:24;99496.06;;;31.74;30.65
16331;BME280;8275;48.206;16.340;2022-07-06T08:55:54;99494.19;;;31.88;30.45
16331;BME280;8275;48.206;16.340;2022-07-06T08:58:24;99499.94;;;32.03;30.17
16331;BME280;8275;48.206;16.340;2022-07-06T09:00:54;99494.34;;;32.10;29.75
16331;BME280;8275;48.206;16.340;2022-07-06T09:03:23;99496.81;;;32.11;29.08
16331;BME280;8275;48.206;16.340;2022-07-06T09:05:58;99499.22;;;32.09;28.68
16331;BME280;8275;48.206;16.340;2022-07-06T09:08:31;99493.16;;;32.11;28.83
16331;BME280;8275;48.206;16.340;2022-07-06T09:11:00;99487.06;;;32.12;28.40
16331;BME280;8275;48.206;16.340;2022-07-06T09:13:29;99500.00;;;32.10;28.65
16331;BME280;8275;48.206;16.340;2022-07-06T09:16:09;99498.34;;;32.02;28.63
16331;BME280;8275;48.206;16.340;2022-07-06T09:18:58;99494.28;;;32.03;28.41
16331;BME280;8275;48.206;16.340;2022-07-06T09:21:31;99492.69;;;32.02;28.78
16331;BME280;8275;48.206;16.340;2022-07-06T09:24:02;99482.16;;;32.06;28.83
16331;BME280;8275;48.206;16.340;2022-07-06T09:26:31;99486.25;;;32.08;28.68
16331;BME280;8275;48.206;16.340;2022-07-06T09:28:59;99492.75;;;32.12;29.14
16331;BME280;8275;48.206;16.340;2022-07-06T09:31:28;99484.66;;;32.14;28.97
16331;BME280;8275;48.206;16.340;2022-07-06T09:33:59;99487.53;;;32.18;29.45
16331;BME280;8275;48.206;16.340;2022-07-06T09:36:44;99488.72;;;32.13;28.56
16331;BME280;8275;48.206;16.340;2022-07-06T09:39:23;99494.69;;;31.98;28.86
16331;BME280;8275;48.206;16.340;2022-07-06T09:41:57;99499.03;;;31.88;28.86
16331;BME280;8275;48.206;16.340;2022-07-06T09:44:28;99490.06;;;31.82;28.63
16331;BME280;8275;48.206;16.340;2022-07-06T09:46:59;99487.28;;;31.86;28.98
16331;BME280;8275;48.206;16.340;2022-07-06T09:49:28;99488.13;;;31.93;28.48
16331;BME280;8275;48.206;16.340;2022-07-06T09:52:01;99484.88;;;31.91;28.15
16331;BME280;8275;48.206;16.340;2022-07-06T09:54:30;99482.44;;;31.93;28.29
16331;BME280;8275;48.206;16.340;2022-07-06T09:56:59;99484.94;;;31.99;28.27
16331;BME280;8275;48.206;16.340;2022-07-06T09:59:35;99471.25;;;32.08;28.48
16331;BME280;8275;48.206;16.340;2022-07-06T10:02:06;99475.34;;;32.14;27.97
16331;BME280;8275;48.206;16.340;2022-07-06T10:04:36;99474.59;;;32.20;27.40
16331;BME280;8275;48.206;16.340;2022-07-06T10:07:06;99470.97;;;32.23;27.49
16331;BME280;8275;48.206;16.340;2022-07-06T10:09:38;99475.41;;;32.24;26.93
16331;BME280;8275;48.206;16.340;2022-07-06T10:12:12;99479.84;;;32.22;26.72
16331;BME280;8275;48.206;16.340;2022-07-06T10:14:40;99483.13;;;32.31;26.43
16331;BME280;8275;48.206;16.340;2022-07-06T10:17:17;99490.44;;;32.35;26.22
16331;BME280;8275;48.206;16.340;2022-07-06T10:19:47;99481.97;;;32.39;26.22
16331;BME280;8275;48.206;16.340;2022-07-06T10:22:19;99469.81;;;32.38;26.52
16331;BME280;8275;48.206;16.340;2022-07-06T10:24:49;99457.28;;;32.39;25.94
16331;BME280;8275;48.206;16.340;2022-07-06T10:27:18;99463.75;;;32.36;26.22
16331;BME280;8275;48.206;16.340;2022-07-06T10:29:47;99454.00;;;32.37;27.05
16331;BME280;8275;48.206;16.340;2022-07-06T10:32:18;99462.53;;;32.41;26.45
16331;BME280;8275;48.206;16.340;2022-07-06T10:34:47;99467.84;;;32.46;26.54
16331;BME280;8275;48.206;16.340;2022-07-06T10:37:25;99478.38;;;32.45;27.23
16331;BME280;8275;48.206;16.340;2022-07-06T10:39:54;99480.81;;;32.47;26.85
16331;BME280;8275;48.206;16.340;2022-07-06T10:42:45;99500.59;;;32.36;27.15
16331;BME280;8275;48.206;16.340;2022-07-06T10:45:21;99506.13;;;32.19;26.84
16331;BME280;8275;48.206;16.340;2022-07-06T10:48:19;99519.69;;;31.88;27.02
16331;BME280;8275;48.206;16.340;2022-07-06T10:50:51;99543.25;;;31.56;28.88
16331;BME280;8275;48.206;16.340;2022-07-06T10:53:25;99573.84;;;31.10;32.77
16331;BME280;8275;48.206;16.340;2022-07-06T10:55:56;99562.13;;;30.52;33.78
16331;BME280;8275;48.206;16.340;2022-07-06T10:58:47;99564.00;;;29.73;34.57
16331;BME280;8275;48.206;16.340;2022-07-06T11:01:19;99565.31;;;29.14;35.67
16331;BME280;8275;48.206;16.340;2022-07-06T11:03:49;99577.09;;;28.63;35.87
16331;BME280;8275;48.206;16.340;2022-07-06T11:06:20;99560.34;;;28.19;36.54
16331;BME280;8275;48.206;16.340;2022-07-06T11:08:53;99571.50;;;27.84;36.17
16331;BME280;8275;48.206;16.340;2022-07-06T11:11:25;99563.59;;;27.59;36.39
16331;BME280;8275;48.206;16.340;2022-07-06T11:13:58;99567.56;;;27.42;36.08
16331;BME280;8275;48.206;16.340;2022-07-06T11:16:30;99581.09;;;27.37;36.31
16331;BME280;8275;48.206;16.340;2022-07-06T11:19:05;99576.84;;;27.43;35.77
16331;BME280;8275;48.206;16.340;2022-07-06T11:21:40;99567.50;;;27.70;35.53
16331;BME280;8275;48.206;16.340;2022-07-06T11:24:13;99580.69;;;27.97;34.32
16331;BME280;8275;48.206;16.340;2022-07-06T11:26:44;99564.88;;;28.24;33.92
16331;BME280;8275;48.206;16.340;2022-07-06T11:29:15;99556.16;;;28.64;33.65
16331;BME280;8275;48.206;16.340;2022-07-06T11:31:46;99559.22;;;29.32;33.53
16331;BME280;8275;48.206;16.340;2022-07-06T11:34:20;99552.31;;;30.20;33.12
16331;BME280;8275;48.206;16.340;2022-07-06T11:36:49;99550.13;;;31.21;32.43
16331;BME280;8275;48.206;16.340;2022-07-06T11:39:19;99539.47;;;32.32;31.30
16331;BME280;8275;48.206;16.340;2022-07-06T11:41:47;99537.25;;;33.52;30.73
16331;BME280;8275;48.206;16.340;2022-07-06T11:44:18;99535.16;;;34.69;28.96
16331;BME280;8275;48.206;16.340;2022-07-06T11:46:47;99533.13;;;35.60;25.83
16331;BME280;8275;48.206;16.340;2022-07-06T11:49:16;99527.19;;;36.39;26.09
16331;BME280;8275;48.206;16.340;2022-07-06T11:51:46;99518.97;;;37.16;25.14
16331;BME280;8275;48.206;16.340;2022-07-06T11:54:17;99518.38;;;37.85;24.73
16331;BME280;8275;48.206;16.340;2022-07-06T11:56:49;99510.16;;;38.56;24.08
16331;BME280;8275;48.206;16.340;2022-07-06T11:59:22;99504.06;;;39.13;23.49
16331;BME280;8275;48.206;16.340;2022-07-06T12:01:59;99500.84;;;39.67;22.69
16331;BME280;8275;48.206;16.340;2022-07-06T12:04:28;99491.94;;;40.26;22.93
16331;BME280;8275;48.206;16.340;2022-07-06T12:07:00;99483.19;;;40.90;22.06
16331;BME280;8275;48.206;16.340;2022-07-06T12:09:30;99486.28;;;41.37;21.30
16331;BME280;8275;48.206;16.340;2022-07-06T12:12:01;99490.31;;;41.77;20.97
16331;BME280;8275;48.206;16.340;2022-07-06T12:14:33;99481.16;;;42.17;20.59
16331;BME280;8275;48.206;16.340;2022-07-06T12:17:04;99481.72;;;42.58;20.05
16331;BME280;8275;48.206;16.340;2022-07-06T12:19:34;99485.09;;;43.00;19.41
16331;BME280;8275;48.206;16.340;2022-07-06T12:22:04;99488.69;;;43.35;18.58
16331;BME280;8275;48.206;16.340;2022-07-06T12:24:34;99475.50;;;43.65;17.91
16331;BME280;8275;48.206;16.340;2022-07-06T12:27:13;99480.56;;;43.91;16.91
16331;BME280;8275;48.206;16.340;2022-07-06T12:29:42;99472.22;;;43.84;16.45
16331;BME280;8275;48.206;16.340;2022-07-06T12:32:15;99482.13;;;43.35;15.43
16331;BME280;8275;48.206;16.340;2022-07-06T12:34:45;99468.25;;;42.55;15.46
16331;BME280;8275;48.206;16.340;2022-07-06T12:37:15;99471.31;;;41.55;15.40
16331;BME280;8275;48.206;16.340;2022-07-06T12:39:46;99491.63;;;40.52;16.19
16331;BME280;8275;48.206;16.340;2022-07-06T12:42:17;99484.50;;;39.64;17.01
16331;BME280;8275;48.206;16.340;2022-07-06T12:44:50;99479.22;;;39.26;17.60
16331;BME280;8275;48.206;16.340;2022-07-06T12:47:20;99475.47;;;39.29;17.29
16331;BME280;8275;48.206;16.340;2022-07-06T12:50:05;99479.38;;;39.55;17.64
16331;BME280;8275;48.206;16.340;2022-07-06T12:52:34;99474.66;;;39.81;17.58
16331;BME280;8275;48.206;16.340;2022-07-06T12:55:07;99472.31;;;40.24;17.40
16331;BME280;8275;48.206;16.340;2022-07-06T12:57:45;99464.69;;;40.91;17.35
16331;BME280;8275;48.206;16.340;2022-07-06T13:00:16;99444.06;;;41.72;17.00
16331;BME280;8275;48.206;16.340;2022-07-06T13:02:47;99450.06;;;42.12;15.70
16331;BME280;8275;48.206;16.340;2022-07-06T13:05:36;99449.19;;;42.36;15.34
16331;BME280;8275;48.206;16.340;2022-07-06T13:08:06;99455.47;;;42.22;14.66
16331;BME280;8275;48.206;16.340;2022-07-06T13:10:36;99473.59;;;42.10;14.86
16331;BME280;8275;48.206;16.340;2022-07-06T13:13:09;99473.66;;;42.19;14.83
16331;BME280;8275;48.206;16.340;2022-07-06T13:15:41;99460.72;;;42.36;14.83
16331;BME280;8275;48.206;16.340;2022-07-06T13:18:10;99471.06;;;42.68;14.81